createdAt,value
2018-02-11T00:01:32.780Z,93904.65
2018-02-11T00:03:58.887Z,93910.77
2018-02-11T00:06:24.934Z,93909.02
2018-02-11T00:08:51.009Z,93900.55
2018-02-11T00:11:17.030Z,93897.23
2018-02-11T00:13:43.105Z,93905.45
2018-02-11T00:16:09.183Z,93899.39
2018-02-11T00:18:35.222Z,93899.16
2018-02-11T00:21:01.334Z,93902.23
2018-02-11T00:23:27.347Z,93900.16
2018-02-11T00:25:53.424Z,93899.78
2018-02-11T00:28:19.445Z,93906.24
2018-02-11T00:30:45.551Z,93899.45
2018-02-11T00:33:11.728Z,93904.36
2018-02-11T00:35:37.736Z,93897.02
2018-02-11T00:38:03.835Z,93901.60
2018-02-11T00:40:29.842Z,93900.98
2018-02-11T00:42:56.022Z,93901.92
2018-02-11T00:45:22.045Z,93902.32
2018-02-11T00:47:48.059Z,93900.58
2018-02-11T00:50:14.169Z,93896.55
2018-02-11T00:52:40.264Z,93896.87
2018-02-11T00:55:06.300Z,93892.61
2018-02-11T00:57:32.315Z,93892.41
2018-02-11T00:59:58.369Z,93883.80
2018-02-11T01:02:24.393Z,93872.70
2018-02-11T01:04:50.474Z,93882.30
2018-02-11T01:07:16.507Z,93869.27
2018-02-11T01:09:42.599Z,93865.47
2018-02-11T01:12:08.679Z,93871.32
2018-02-11T01:14:34.813Z,93882.94
2018-02-11T01:17:00.898Z,93891.00
2018-02-11T01:19:26.972Z,93887.05
2018-02-11T01:21:52.992Z,93878.67
2018-02-11T01:24:19.015Z,93874.64
2018-02-11T01:26:45.087Z,93873.61
2018-02-11T01:29:11.116Z,93865.55
2018-02-11T01:31:37.184Z,93858.58
2018-02-11T01:34:03.205Z,93867.41
2018-02-11T01:36:29.293Z,93868.19
2018-02-11T01:38:55.348Z,93866.36
2018-02-11T01:41:21.370Z,93868.83
2018-02-11T01:43:47.454Z,93869.14
2018-02-11T01:46:13.518Z,93870.89
2018-02-11T01:48:39.573Z,93864.25
2018-02-11T01:51:05.645Z,93868.06
2018-02-11T01:53:31.732Z,93866.48
2018-02-11T01:55:57.815Z,93863.04
2018-02-11T01:58:23.905Z,93863.20
2018-02-11T02:00:49.924Z,93853.01
2018-02-11T02:03:15.949Z,93863.45
2018-02-11T02:05:42.048Z,93867.39
2018-02-11T02:08:08.086Z,93875.30
2018-02-11T02:10:34.123Z,93867.17
2018-02-11T02:13:00.219Z,93870.56
2018-02-11T02:15:26.272Z,93864.72
2018-02-11T02:17:52.297Z,93866.70
2018-02-11T02:20:18.354Z,93867.05
2018-02-11T02:22:44.368Z,93858.72
2018-02-11T02:25:10.487Z,93866.73
2018-02-11T02:27:36.465Z,93865.55
2018-02-11T02:30:02.543Z,93859.78
2018-02-11T02:32:28.603Z,93865.87
2018-02-11T02:34:54.614Z,93869.81
2018-02-11T02:37:20.680Z,93860.09
2018-02-11T02:39:46.693Z,93864.53
2018-02-11T02:42:12.760Z,93858.37
2018-02-11T02:44:38.853Z,93856.94
2018-02-11T02:47:04.916Z,93853.94
2018-02-11T02:49:30.955Z,93851.73
2018-02-11T02:51:57.024Z,93853.39
2018-02-11T02:54:23.036Z,93857.77
2018-02-11T02:56:49.125Z,93858.48
2018-02-11T02:59:15.142Z,93857.22
2018-02-11T03:01:41.225Z,93853.66
2018-02-11T03:04:07.239Z,93862.83
2018-02-11T03:06:33.265Z,93855.81
2018-02-11T03:08:59.335Z,93854.19
2018-02-11T03:11:25.348Z,93850.73
2018-02-11T03:13:51.365Z,93853.80
2018-02-11T03:16:17.465Z,93854.37
2018-02-11T03:18:43.469Z,93856.98
2018-02-11T03:21:09.517Z,93856.51
2018-02-11T03:23:35.584Z,93857.09
2018-02-11T03:26:01.649Z,93857.22
2018-02-11T03:28:27.763Z,93857.65
2018-02-11T03:30:53.867Z,93859.47
2018-02-11T03:33:19.954Z,93856.47
2018-02-11T03:35:46.013Z,93858.52
2018-02-11T03:38:12.086Z,93857.18
2018-02-11T03:40:38.112Z,93862.56
2018-02-11T03:43:04.174Z,93863.03
2018-02-11T03:45:30.184Z,93853.70
2018-02-11T03:47:56.272Z,93859.56
2018-02-11T03:50:22.446Z,93854.34
2018-02-11T03:52:48.483Z,93861.69
2018-02-11T03:55:14.512Z,93862.23
2018-02-11T03:57:40.580Z,93864.05
2018-02-11T04:00:06.667Z,93860.49
2018-02-11T04:02:32.714Z,93857.17
2018-02-11T04:04:58.743Z,93853.14
2018-02-11T04:07:24.812Z,93850.46
2018-02-11T04:09:50.842Z,93853.82
2018-02-11T04:12:16.908Z,93854.58
2018-02-11T04:14:42.936Z,93856.88
2018-02-11T04:17:08.998Z,93858.37
2018-02-11T04:19:35.013Z,93853.00
2018-02-11T04:22:01.081Z,93849.04
2018-02-11T04:24:27.203Z,93856.98
2018-02-11T04:26:53.297Z,93858.98
2018-02-11T04:29:19.345Z,93858.23
2018-02-11T04:31:45.366Z,93853.73
2018-02-11T04:34:11.472Z,93852.87
2018-02-11T04:36:37.495Z,93859.91
2018-02-11T04:39:03.507Z,93859.11
2018-02-11T04:41:29.531Z,93861.80
2018-02-11T04:43:55.565Z,93864.55
2018-02-11T04:46:21.582Z,93857.77
2018-02-11T04:48:47.600Z,93868.66
2018-02-11T04:51:13.623Z,93866.84
2018-02-11T04:53:39.686Z,93859.65
2018-02-11T04:56:05.774Z,93864.23
2018-02-11T04:58:31.797Z,93865.19
2018-02-11T05:00:57.812Z,93862.33
2018-02-11T05:03:23.882Z,93863.36
2018-02-11T05:05:49.907Z,93865.34
2018-02-11T05:08:15.973Z,93864.79
2018-02-11T05:10:42.049Z,93869.68
2018-02-11T05:13:08.125Z,93868.27
2018-02-11T05:15:34.154Z,93866.37
2018-02-11T05:18:00.233Z,93869.12
2018-02-11T05:20:26.266Z,93868.02
2018-02-11T05:22:52.328Z,93868.11
2018-02-11T05:25:18.333Z,93871.68
2018-02-11T05:27:44.407Z,93878.07
2018-02-11T05:30:10.430Z,93877.09
2018-02-11T05:32:36.444Z,93872.61
2018-02-11T05:35:02.477Z,93872.55
2018-02-11T05:37:28.499Z,93869.24
2018-02-11T05:39:54.518Z,93875.86
2018-02-11T05:42:20.505Z,93876.98
2018-02-11T05:44:46.539Z,93878.41
2018-02-11T05:49:38.916Z,93883.36
2018-02-11T05:52:05.006Z,93891.70
2018-02-11T05:54:31.042Z,93894.16
2018-02-11T05:56:57.070Z,93890.05
2018-02-11T05:59:23.089Z,93888.94
2018-02-11T06:01:49.151Z,93893.13
2018-02-11T06:04:15.243Z,93897.36
2018-02-11T06:06:41.293Z,93894.83
2018-02-11T06:09:07.346Z,93896.45
2018-02-11T06:11:33.419Z,93895.73
2018-02-11T06:13:59.481Z,93897.33
2018-02-11T06:16:25.552Z,93896.45
2018-02-11T06:18:51.607Z,93898.90
2018-02-11T06:21:17.636Z,93898.66
2018-02-11T06:23:43.679Z,93885.51
2018-02-11T06:26:09.750Z,93900.80
2018-02-11T06:28:35.858Z,93903.09
2018-02-11T06:31:01.880Z,93904.59
2018-02-11T06:33:27.938Z,93900.88
2018-02-11T06:35:54.058Z,93904.91
2018-02-11T06:38:20.079Z,93904.84
2018-02-11T06:40:46.152Z,93903.84
2018-02-11T06:43:12.180Z,93907.68
2018-02-11T06:45:38.190Z,93908.50
2018-02-11T06:48:04.246Z,93908.23
2018-02-11T06:50:30.275Z,93915.58
2018-02-11T06:52:56.497Z,93916.61
2018-02-11T06:55:22.601Z,93916.33
2018-02-11T06:57:48.623Z,93912.34
2018-02-11T07:00:14.691Z,93919.06
2018-02-11T07:02:40.735Z,93919.77
2018-02-11T07:05:06.785Z,93922.34
2018-02-11T07:07:32.827Z,93918.91
2018-02-11T07:09:58.970Z,93919.41
2018-02-11T07:12:24.983Z,93922.02
2018-02-11T07:14:51.008Z,93917.36
2018-02-11T07:17:17.010Z,93921.63
2018-02-11T07:19:43.084Z,93922.27
2018-02-11T07:22:09.116Z,93919.81
2018-02-11T07:24:35.167Z,93920.29
2018-02-11T07:27:01.183Z,93926.61
2018-02-11T07:29:27.253Z,93925.74
2018-02-11T07:31:53.290Z,93927.09
2018-02-11T07:34:19.388Z,93928.75
2018-02-11T07:36:45.431Z,93926.06
2018-02-11T07:39:11.474Z,93923.22
2018-02-11T07:41:37.490Z,93926.17
2018-02-11T07:44:03.511Z,93926.86
2018-02-11T07:46:29.577Z,93923.09
2018-02-11T07:48:55.604Z,93924.48
2018-02-11T07:51:21.620Z,93922.83
2018-02-11T07:53:47.714Z,93927.05
2018-02-11T07:56:13.752Z,93925.63
2018-02-11T07:58:39.769Z,93934.72
2018-02-11T08:01:05.776Z,93928.70
2018-02-11T08:03:31.806Z,93930.92
2018-02-11T08:05:57.868Z,93926.73
2018-02-11T08:08:23.941Z,93931.31
2018-02-11T08:10:49.971Z,93931.08
2018-02-11T08:13:16.012Z,93942.94
2018-02-11T08:15:42.035Z,93936.77
2018-02-11T08:18:08.111Z,93939.38
2018-02-11T08:20:34.135Z,93942.89
2018-02-11T08:23:00.179Z,93937.04
2018-02-11T08:25:26.214Z,93945.16
2018-02-11T08:27:52.274Z,93947.61
2018-02-11T08:30:18.300Z,93945.03
2018-02-11T08:32:44.311Z,93947.56
2018-02-11T08:35:10.441Z,93942.97
2018-02-11T08:37:38.715Z,93950.80
2018-02-11T08:40:02.573Z,93949.45
2018-02-11T09:29:16.569Z,93969.63
2018-02-11T09:31:45.143Z,93975.00
2018-02-11T09:34:11.205Z,93971.44
2018-02-11T09:36:37.249Z,93977.34
2018-02-11T09:39:03.264Z,93976.55
2018-02-11T09:41:29.309Z,93970.17
2018-02-11T09:43:55.332Z,93973.47
2018-02-11T09:46:21.399Z,93975.13
2018-02-11T09:48:47.484Z,93969.91
2018-02-11T09:51:13.542Z,93976.94
2018-02-11T09:53:39.557Z,93980.19
2018-02-11T09:56:05.584Z,93977.18
2018-02-11T09:58:31.604Z,93978.52
2018-02-11T10:00:57.633Z,93977.09
2018-02-11T10:03:23.709Z,93979.47
2018-02-11T10:05:49.784Z,93979.63
2018-02-11T10:08:15.858Z,93983.27
2018-02-11T10:10:41.878Z,93982.16
2018-02-11T10:13:07.934Z,93981.52
2018-02-11T10:15:33.955Z,93987.62
2018-02-11T10:17:59.981Z,93978.92
2018-02-11T10:20:25.999Z,93982.31
2018-02-11T10:22:52.064Z,93985.95
2018-02-11T10:25:18.153Z,93984.69
2018-02-11T10:27:44.217Z,93983.90
2018-02-11T10:30:10.316Z,93984.14
2018-02-11T10:32:36.343Z,93982.95
2018-02-11T10:35:02.420Z,93987.53
2018-02-11T10:37:28.422Z,93983.34
2018-02-11T10:39:54.496Z,93987.05
2018-02-11T10:42:20.519Z,93982.00
2018-02-11T10:44:46.604Z,93983.42
2018-02-11T10:47:12.699Z,93991.97
2018-02-11T10:49:38.777Z,93991.41
2018-02-11T10:52:04.803Z,93989.28
2018-02-11T10:54:30.840Z,93988.88
2018-02-11T10:56:56.851Z,93991.73
2018-02-11T10:59:22.926Z,93991.89
2018-02-11T11:01:49.092Z,93991.73
2018-02-11T11:04:15.148Z,93993.39
2018-02-11T11:06:41.211Z,93991.65
2018-02-11T11:09:07.500Z,93991.49
2018-02-11T11:11:33.564Z,93987.62
2018-02-11T11:13:59.649Z,93986.03
2018-02-11T11:16:25.658Z,93992.59
2018-02-11T11:18:51.683Z,93997.74
2018-02-11T11:21:17.704Z,94000.75
2018-02-11T11:23:43.746Z,93997.66
2018-02-11T11:26:09.837Z,93994.42
2018-02-11T11:28:35.876Z,93996.00
2018-02-11T11:31:01.902Z,93996.78
2018-02-11T11:33:27.945Z,93994.66
2018-02-11T11:35:54.000Z,93999.33
2018-02-11T11:38:20.069Z,94002.33
2018-02-11T11:40:46.085Z,93998.45
2018-02-11T11:43:12.656Z,93995.28
2018-02-11T11:45:38.662Z,94002.16
2018-02-11T11:48:04.715Z,94002.87
2018-02-11T11:50:30.742Z,94009.76
2018-02-11T11:52:57.055Z,94006.83
2018-02-11T11:55:23.167Z,94016.31
2018-02-11T11:57:49.294Z,94005.17
2018-02-11T12:00:15.364Z,94007.07
2018-02-11T12:02:41.406Z,93995.31
2018-02-11T12:05:07.481Z,94010.45
2018-02-11T12:07:33.558Z,94017.81
2018-02-11T12:09:59.575Z,94015.52
2018-02-11T12:12:25.583Z,94016.87
2018-02-11T12:14:51.595Z,94013.23
2018-02-11T12:17:17.607Z,94005.31
2018-02-11T12:19:43.642Z,94019.00
2018-02-11T12:22:09.714Z,94019.48
2018-02-11T12:24:35.781Z,94021.13
2018-02-11T12:27:01.817Z,94021.61
2018-02-11T12:29:27.831Z,94026.63
2018-02-11T12:31:53.890Z,94018.76
2018-02-11T12:34:19.953Z,94023.11
2018-02-11T12:36:46.044Z,94019.59
2018-02-11T12:39:12.093Z,94026.39
2018-02-11T12:41:38.181Z,94019.67
2018-02-11T12:44:04.193Z,94025.37
2018-02-11T12:46:30.210Z,94022.36
2018-02-11T12:48:56.231Z,94029.39
2018-02-11T12:51:22.297Z,94016.11
2018-02-11T12:53:48.337Z,94025.36
2018-02-11T12:56:14.353Z,94026.06
2018-02-11T12:58:40.430Z,94024.02
2018-02-11T13:01:06.419Z,94025.72
2018-02-11T13:03:32.471Z,94024.73
2018-02-11T13:05:58.941Z,94023.94
2018-02-11T13:08:24.974Z,94023.15
2018-02-11T13:10:50.993Z,94025.72
2018-02-11T13:13:17.178Z,94026.67
2018-02-11T13:15:43.211Z,94025.80
2018-02-11T13:18:09.316Z,94026.19
2018-02-11T13:20:35.294Z,94027.38
2018-02-11T13:23:01.324Z,94034.64
2018-02-11T13:25:27.381Z,94027.61
2018-02-11T13:27:53.435Z,94029.94
2018-02-11T13:30:19.554Z,94029.16
2018-02-11T13:32:45.565Z,94030.39
2018-02-11T13:35:11.586Z,94034.42
2018-02-11T13:37:37.627Z,94029.55
2018-02-11T13:40:03.670Z,94034.58
2018-02-11T13:42:29.681Z,94027.88
2018-02-11T13:44:55.759Z,94034.30
2018-02-11T13:47:21.786Z,94037.89
2018-02-11T13:49:47.805Z,94024.92
2018-02-11T13:52:14.008Z,94032.06
2018-02-11T13:54:40.030Z,94030.47
2018-02-11T13:57:06.031Z,94037.98
2018-02-11T13:59:32.048Z,94036.80
2018-02-11T14:01:58.071Z,94038.31
2018-02-11T14:04:24.106Z,94022.95
2018-02-11T14:06:50.139Z,94042.82
2018-02-11T14:09:16.198Z,94042.63
2018-02-11T14:11:42.210Z,94038.14
2018-02-11T14:14:08.224Z,94040.13
2018-02-11T14:16:34.336Z,94039.64
2018-02-11T14:19:00.416Z,94043.61
2018-02-11T14:21:26.525Z,94045.18
2018-02-11T14:23:52.599Z,94046.45
2018-02-11T14:26:18.613Z,94039.88
2018-02-11T14:28:44.675Z,94042.19
2018-02-11T14:31:10.708Z,94043.61
2018-02-11T14:33:36.757Z,94047.02
2018-02-11T14:36:02.789Z,94048.67
2018-02-11T14:38:28.912Z,94045.98
2018-02-11T14:40:54.996Z,94050.33
2018-02-11T14:43:21.046Z,94050.45
2018-02-11T14:45:47.110Z,94055.47
2018-02-11T14:48:13.134Z,94063.06
2018-02-11T14:50:39.187Z,94060.45
2018-02-11T14:53:05.211Z,94062.04
2018-02-11T14:55:31.234Z,94061.48
2018-02-11T14:57:57.326Z,94063.22
2018-02-11T15:00:23.383Z,94068.44
2018-02-11T15:02:49.451Z,94072.47
2018-02-11T15:05:15.457Z,94076.75
2018-02-11T15:07:41.566Z,94076.27
2018-02-11T15:10:07.607Z,94090.10
2018-02-11T15:12:33.679Z,94083.54
2018-02-11T15:14:59.720Z,94095.41
2018-02-11T15:17:25.769Z,94090.26
2018-02-11T15:19:51.856Z,94102.60
2018-02-11T15:22:17.935Z,94098.16
2018-02-11T15:24:43.985Z,94100.61
2018-02-11T15:27:10.079Z,94097.03
2018-02-11T15:29:36.148Z,94103.67
2018-02-11T15:32:02.144Z,94106.45
2018-02-11T15:34:28.179Z,94112.20
2018-02-11T15:36:54.255Z,94113.16
2018-02-11T15:39:20.262Z,94121.02
2018-02-11T15:41:46.319Z,94120.62
2018-02-11T15:44:12.363Z,94137.45
2018-02-11T15:46:38.428Z,94130.79
2018-02-11T15:49:04.460Z,94137.13
2018-02-11T15:51:30.493Z,94136.88
2018-02-11T15:53:56.654Z,94140.92
2018-02-11T15:56:22.718Z,94139.65
2018-02-11T15:58:48.789Z,94141.63
2018-02-11T16:01:14.898Z,94137.25
2018-02-11T16:03:40.939Z,94134.95
2018-02-11T16:06:06.951Z,94145.55
2018-02-11T16:08:33.012Z,94142.73
2018-02-11T16:10:59.020Z,94141.52
2018-02-11T16:13:25.095Z,94149.03
2018-02-11T16:15:51.121Z,94146.05
2018-02-11T16:18:17.183Z,94155.30
2018-02-11T16:20:43.225Z,94154.56
2018-02-11T16:23:09.286Z,94157.84
2018-02-11T16:25:35.316Z,94159.16
2018-02-11T16:28:01.348Z,94167.62
2018-02-11T16:30:27.358Z,94160.75
2018-02-11T16:32:53.435Z,94168.41
2018-02-11T16:35:19.453Z,94173.55
2018-02-11T16:37:45.477Z,94172.81
2018-02-11T16:40:11.522Z,94170.75
2018-02-11T16:42:37.602Z,94173.45
2018-02-11T16:45:03.678Z,94181.91
2018-02-11T16:47:29.738Z,94180.88
2018-02-11T16:49:55.754Z,94174.14
2018-02-11T16:52:21.775Z,94165.61
2018-02-11T16:54:47.807Z,94186.50
2018-02-11T16:57:13.828Z,94179.66
2018-02-11T16:59:39.879Z,94180.64
2018-02-11T17:02:05.905Z,94186.02
2018-02-11T17:04:31.942Z,94187.66
2018-02-11T17:06:57.964Z,94190.68
2018-02-11T17:09:24.023Z,94191.14
2018-02-11T17:11:50.119Z,94191.20
2018-02-11T17:14:16.133Z,94194.78
2018-02-11T17:16:42.193Z,94203.30
2018-02-11T17:19:08.229Z,94201.95
2018-02-11T17:21:34.266Z,94205.92
2018-02-11T17:24:00.331Z,94203.88
2018-02-11T17:26:26.330Z,94206.99
2018-02-11T17:28:52.369Z,94210.96
2018-02-11T17:31:18.462Z,94209.98
2018-02-11T17:33:44.549Z,94211.66
2018-02-11T17:36:10.578Z,94215.94
2018-02-11T17:38:36.595Z,94216.18
2018-02-11T17:41:02.618Z,94229.47
2018-02-11T17:43:28.632Z,94225.49
2018-02-11T17:45:54.706Z,94227.14
2018-02-11T17:48:20.704Z,94231.66
2018-02-11T17:50:46.742Z,94227.73
2018-02-11T17:53:12.789Z,94229.31
2018-02-11T17:55:38.872Z,94236.98
2018-02-11T17:58:04.969Z,94230.50
2018-02-11T18:00:30.988Z,94228.77
2018-02-11T18:02:57.034Z,94230.30
2018-02-11T18:05:23.064Z,94238.90
2018-02-11T18:07:49.235Z,94238.29
2018-02-11T18:10:15.338Z,94239.52
2018-02-11T18:12:41.377Z,94244.48
2018-02-11T18:15:07.450Z,94243.69
2018-02-11T18:17:33.486Z,94245.59
2018-02-11T18:19:59.506Z,94252.58
2018-02-11T18:22:25.517Z,94255.81
2018-02-11T18:24:51.531Z,94255.23
2018-02-11T18:27:17.539Z,94262.53
2018-02-11T18:29:43.654Z,94258.11
2018-02-11T18:32:09.663Z,94255.54
2018-02-11T18:34:35.677Z,94263.33
2018-02-11T18:37:01.711Z,94260.00
2018-02-11T18:39:27.722Z,94250.44
2018-02-11T18:41:53.744Z,94254.23
2018-02-11T18:44:19.758Z,94253.00
2018-02-11T18:46:45.774Z,94261.31
2018-02-11T18:49:11.782Z,94265.49
2018-02-11T18:51:37.873Z,94267.02
2018-02-11T18:54:03.891Z,94270.56
2018-02-11T18:56:29.914Z,94264.88
2018-02-11T18:58:55.946Z,94269.61
2018-02-11T19:01:22.032Z,94273.41
2018-02-11T19:03:50.238Z,94268.45
2018-02-11T19:06:16.252Z,94267.91
2018-02-11T19:08:42.273Z,94271.75
2018-02-11T19:11:08.297Z,94278.16
2018-02-11T19:13:34.342Z,94277.13
2018-02-11T19:16:00.375Z,94272.76
2018-02-11T19:18:26.398Z,94280.70
2018-02-11T19:20:52.472Z,94286.52
2018-02-11T19:23:18.542Z,94279.96
2018-02-11T19:25:44.598Z,94287.23
2018-02-11T19:28:10.642Z,94290.31
2018-02-11T19:30:36.666Z,94280.94
2018-02-11T19:33:02.741Z,94285.27
2018-02-11T19:35:28.759Z,94289.61
2018-02-11T19:37:54.813Z,94288.66
2018-02-11T19:40:20.830Z,94277.42
2018-02-11T19:42:46.846Z,94289.30
2018-02-11T19:45:12.925Z,94288.33
2018-02-11T19:47:38.966Z,94291.59
2018-02-11T19:50:05.038Z,94290.41
2018-02-11T19:52:31.070Z,94294.83
2018-02-11T19:54:57.149Z,94299.17
2018-02-11T19:57:23.243Z,94294.10
2018-02-11T19:59:49.257Z,94297.06
2018-02-11T20:02:15.267Z,94297.13
2018-02-11T20:04:41.318Z,94300.05
2018-02-11T20:07:10.370Z,94302.03
2018-02-11T20:09:36.424Z,94294.89
2018-02-11T20:12:02.535Z,94299.99
2018-02-11T20:14:28.620Z,94298.65
2018-02-11T20:16:54.643Z,94294.19
2018-02-11T20:19:20.698Z,94306.06
2018-02-11T20:21:46.797Z,94300.94
2018-02-11T20:24:12.908Z,94304.45
2018-02-11T20:26:41.238Z,94305.24
2018-02-11T20:29:07.256Z,94307.95
2018-02-11T20:31:33.299Z,94311.74
2018-02-11T20:33:59.335Z,94319.25
2018-02-11T20:36:25.402Z,94314.03
2018-02-11T20:38:51.421Z,94309.52
2018-02-11T20:41:17.502Z,94318.06
2018-02-11T20:43:43.523Z,94312.39
2018-02-11T20:46:09.606Z,94313.23
2018-02-11T20:48:35.614Z,94319.41
2018-02-11T20:51:01.675Z,94324.08
2018-02-11T20:53:27.698Z,94319.62
2018-02-11T20:55:53.704Z,94320.80
2018-02-11T20:58:19.801Z,94323.90
2018-02-11T21:00:45.805Z,94323.92
2018-02-11T21:03:11.820Z,94321.36
2018-02-11T21:05:37.870Z,94316.38
2018-02-11T21:08:03.922Z,94320.45
2018-02-11T21:10:29.926Z,94314.65
2018-02-11T21:12:56.010Z,94307.98
2018-02-11T21:15:22.033Z,94320.11
2018-02-11T21:17:48.119Z,94313.33
2018-02-11T21:20:14.119Z,94316.23
2018-02-11T21:22:40.171Z,94314.03
2018-02-11T21:25:06.227Z,94317.36
2018-02-11T21:27:32.242Z,94328.96
2018-02-11T21:29:58.267Z,94320.92
2018-02-11T21:32:24.330Z,94323.11
2018-02-11T21:34:50.340Z,94316.70
2018-02-11T21:37:16.402Z,94322.92
2018-02-11T21:39:42.412Z,94326.27
2018-02-11T21:42:08.482Z,94323.37
2018-02-11T21:44:34.492Z,94324.79
2018-02-11T21:47:00.521Z,94323.54
2018-02-11T21:49:26.549Z,94327.28
2018-02-11T21:51:52.553Z,94325.78
2018-02-11T21:54:18.542Z,94325.48
2018-02-11T21:56:44.559Z,94329.34
2018-02-11T21:59:10.602Z,94323.51
2018-02-11T22:01:36.611Z,94328.38
2018-02-11T22:04:02.630Z,94331.09
2018-02-11T22:06:28.671Z,94333.84
2018-02-11T22:08:54.672Z,94338.84
2018-02-11T22:11:20.685Z,94332.67
2018-02-11T22:13:46.697Z,94336.28
2018-02-11T22:16:12.785Z,94336.92
2018-02-11T22:18:38.811Z,94337.47
2018-02-11T22:21:04.856Z,94332.19
2018-02-11T22:23:30.859Z,94338.17
2018-02-11T22:25:56.861Z,94342.14
2018-02-11T22:28:22.862Z,94337.72
2018-02-11T22:30:48.860Z,94337.96
2018-02-11T22:33:14.891Z,94350.51
2018-02-11T22:35:40.948Z,94347.13
2018-02-11T22:38:06.962Z,94347.52
2018-02-11T22:40:32.988Z,94345.13
2018-02-11T22:42:59.014Z,94342.78
2018-02-11T22:45:25.055Z,94342.05
2018-02-11T22:47:51.113Z,94340.44
2018-02-11T22:50:17.178Z,94344.03
2018-02-11T22:52:43.202Z,94338.75
2018-02-11T22:55:09.219Z,94339.95
2018-02-11T22:57:35.285Z,94341.44
2018-02-11T23:00:01.303Z,94341.29
2018-02-11T23:02:27.337Z,94344.47
2018-02-11T23:04:53.364Z,94342.02
2018-02-11T23:07:19.386Z,94343.83
2018-02-11T23:09:45.392Z,94345.53
2018-02-11T23:12:11.436Z,94344.67
2018-02-11T23:14:37.448Z,94347.38
2018-02-11T23:17:03.502Z,94351.09
2018-02-11T23:19:29.537Z,94351.16
2018-02-11T23:21:55.585Z,94353.23
2018-02-11T23:24:21.605Z,94352.69
2018-02-11T23:26:47.695Z,94354.19
2018-02-11T23:29:13.714Z,94357.76
2018-02-11T23:31:39.746Z,94356.81
2018-02-11T23:34:05.775Z,94361.55
2018-02-11T23:36:31.807Z,94361.36
2018-02-11T23:38:57.827Z,94364.78
2018-02-11T23:41:23.925Z,94370.09
2018-02-11T23:43:49.950Z,94373.89
2018-02-11T23:46:15.970Z,94372.05
2018-02-11T23:48:42.004Z,94373.00
2018-02-11T23:51:08.015Z,94378.02
2018-02-11T23:53:34.045Z,94377.67
2018-02-11T23:56:00.088Z,94382.20
2018-02-11T23:58:26.115Z,94375.97
